createdAt,value
2018-03-21T00:00:48.843Z,99.90
2018-03-21T00:03:15.032Z,99.90
2018-03-21T00:05:41.127Z,99.90
2018-03-21T00:08:07.183Z,99.90
2018-03-21T00:10:33.389Z,99.90
2018-03-21T00:12:59.431Z,99.90
2018-03-21T00:15:25.582Z,99.90
2018-03-21T00:17:51.836Z,99.90
2018-03-21T00:20:18.756Z,99.90
2018-03-21T00:22:44.864Z,99.90
2018-03-21T00:25:11.099Z,99.90
2018-03-21T00:27:37.263Z,99.90
2018-03-21T00:30:03.418Z,99.90
2018-03-21T00:32:30.204Z,99.90
2018-03-21T00:34:56.280Z,99.90
2018-03-21T00:37:22.361Z,99.90
2018-03-21T00:39:48.476Z,99.90
2018-03-21T00:42:14.710Z,99.90
2018-03-21T00:44:41.646Z,99.90
2018-03-21T00:47:07.788Z,99.90
2018-03-21T00:49:33.913Z,99.90
2018-03-21T00:52:00.741Z,99.90
2018-03-21T00:54:27.598Z,99.90
2018-03-21T00:56:54.417Z,99.90
2018-03-21T00:59:20.526Z,99.90
2018-03-21T01:01:46.627Z,99.90
2018-03-21T01:04:12.813Z,99.90
2018-03-21T01:06:38.994Z,99.90
2018-03-21T01:09:05.122Z,99.90
2018-03-21T01:11:31.599Z,99.90
2018-03-21T01:13:57.728Z,99.90
2018-03-21T01:16:23.846Z,99.90
2018-03-21T01:18:50.780Z,99.90
2018-03-21T01:21:16.907Z,99.90
2018-03-21T01:23:43.260Z,99.90
2018-03-21T01:26:09.386Z,99.90
2018-03-21T01:28:35.507Z,99.90
2018-03-21T01:31:01.624Z,99.90
2018-03-21T01:33:27.799Z,99.90
2018-03-21T01:35:54.107Z,99.90
2018-03-21T01:38:20.203Z,99.90
2018-03-21T01:40:47.091Z,99.90
2018-03-21T01:43:13.336Z,99.90
2018-03-21T01:45:39.474Z,99.90
2018-03-21T01:48:05.520Z,99.90
2018-03-21T01:50:31.622Z,99.90
2018-03-21T01:53:03.756Z,99.90
2018-03-21T01:55:30.889Z,99.90
2018-03-21T01:57:57.050Z,99.90
2018-03-21T02:00:23.854Z,99.90
2018-03-21T02:02:50.043Z,99.90
2018-03-21T02:05:16.217Z,99.90
2018-03-21T02:07:42.345Z,99.90
2018-03-21T02:10:08.501Z,99.90
2018-03-21T02:12:34.580Z,99.90
2018-03-21T02:15:00.640Z,99.90
2018-03-21T02:17:26.681Z,99.90
2018-03-21T02:19:53.184Z,99.90
2018-03-21T02:22:19.252Z,99.90
2018-03-21T02:24:45.495Z,99.90
2018-03-21T02:27:11.629Z,99.90
2018-03-21T02:29:37.830Z,99.90
2018-03-21T02:32:03.862Z,99.90
2018-03-21T02:34:29.939Z,99.90
2018-03-21T02:36:56.837Z,99.90
2018-03-21T02:39:22.962Z,99.90
2018-03-21T02:41:49.182Z,99.90
2018-03-21T02:44:15.334Z,99.90
2018-03-21T02:46:41.495Z,99.90
2018-03-21T02:49:07.685Z,99.90
2018-03-21T02:51:33.763Z,99.90
2018-03-21T02:54:00.140Z,99.90
2018-03-21T02:56:26.705Z,99.90
2018-03-21T02:58:52.921Z,99.90
2018-03-21T03:01:19.045Z,99.90
2018-03-21T03:03:45.080Z,99.90
2018-03-21T03:06:11.222Z,99.90
2018-03-21T03:08:37.307Z,99.90
2018-03-21T03:11:03.474Z,99.90
2018-03-21T03:13:29.688Z,99.90
2018-03-21T03:15:55.729Z,99.90
2018-03-21T03:18:21.807Z,99.90
2018-03-21T03:20:47.968Z,99.90
2018-03-21T03:23:14.811Z,99.90
2018-03-21T03:25:41.042Z,99.90
2018-03-21T03:28:07.165Z,99.90
2018-03-21T03:30:33.211Z,99.90
2018-03-21T03:32:59.370Z,99.90
2018-03-21T03:35:25.442Z,99.90
2018-03-21T03:37:52.225Z,99.90
2018-03-21T03:40:19.047Z,99.90
2018-03-21T03:42:45.115Z,99.90
2018-03-21T03:45:11.171Z,99.90
2018-03-21T03:47:37.298Z,99.90
2018-03-21T03:50:03.372Z,99.90
2018-03-21T03:52:29.443Z,99.90
2018-03-21T03:54:55.893Z,99.90
2018-03-21T03:57:22.400Z,99.90
2018-03-21T03:59:49.262Z,99.90
2018-03-21T04:02:16.110Z,99.90
2018-03-21T04:04:42.856Z,99.90
2018-03-21T04:07:09.784Z,99.90
2018-03-21T04:09:35.975Z,99.90
2018-03-21T04:12:02.249Z,99.90
2018-03-21T04:14:28.376Z,99.90
2018-03-21T04:16:54.448Z,99.90
2018-03-21T04:19:20.514Z,99.90
2018-03-21T04:21:46.584Z,99.90
2018-03-21T04:24:13.642Z,99.90
2018-03-21T04:26:41.058Z,99.90
2018-03-21T04:29:07.139Z,99.90
2018-03-21T04:31:34.010Z,99.90
2018-03-21T04:34:00.150Z,99.90
2018-03-21T04:36:26.207Z,99.90
2018-03-21T04:38:53.051Z,99.90
2018-03-21T04:41:19.229Z,99.90
2018-03-21T04:43:46.166Z,99.90
2018-03-21T04:46:13.009Z,99.90
2018-03-21T04:48:39.540Z,99.90
2018-03-21T04:51:05.670Z,99.90
2018-03-21T04:53:31.795Z,99.90
2018-03-21T04:55:57.900Z,99.90
2018-03-21T04:58:23.991Z,99.90
2018-03-21T05:00:50.831Z,99.90
2018-03-21T05:03:17.995Z,99.90
2018-03-21T05:05:45.295Z,99.90
2018-03-21T05:08:11.331Z,99.90
2018-03-21T05:10:37.745Z,99.90
2018-03-21T05:13:03.905Z,99.90
2018-03-21T05:15:30.426Z,99.90
2018-03-21T05:17:56.454Z,99.90
2018-03-21T05:20:22.596Z,99.90
2018-03-21T05:22:48.829Z,99.90
2018-03-21T05:25:16.233Z,99.90
2018-03-21T05:27:42.685Z,99.90
2018-03-21T05:30:08.805Z,99.90
2018-03-21T05:32:35.298Z,99.90
2018-03-21T05:35:01.520Z,99.90
2018-03-21T05:37:27.716Z,99.90
2018-03-21T05:39:54.577Z,99.90
2018-03-21T05:42:20.743Z,99.90
2018-03-21T05:44:47.991Z,99.90
2018-03-21T05:47:14.140Z,99.90
2018-03-21T05:49:40.683Z,99.90
2018-03-21T05:52:06.906Z,99.90
2018-03-21T05:54:32.984Z,99.90
2018-03-21T05:56:59.822Z,99.90
2018-03-21T05:59:25.946Z,99.90
2018-03-21T06:01:52.195Z,99.90
2018-03-21T06:04:19.051Z,99.90
2018-03-21T06:06:45.127Z,99.90
2018-03-21T06:09:13.781Z,99.90
2018-03-21T06:11:40.595Z,99.90
2018-03-21T06:14:06.692Z,99.90
2018-03-21T06:16:33.179Z,99.90
2018-03-21T06:18:59.425Z,99.90
2018-03-21T06:21:26.381Z,99.90
2018-03-21T06:23:53.730Z,99.90
2018-03-21T06:26:20.708Z,99.90
2018-03-21T06:28:48.226Z,99.90
2018-03-21T06:31:14.881Z,99.90
2018-03-21T06:33:42.150Z,99.90
2018-03-21T06:36:08.370Z,99.90
2018-03-21T06:38:34.976Z,99.90
2018-03-21T06:41:02.441Z,99.90
2018-03-21T06:43:28.573Z,99.90
2018-03-21T06:45:54.789Z,99.90
2018-03-21T06:48:20.976Z,99.90
2018-03-21T06:50:47.051Z,99.90
2018-03-21T06:53:13.749Z,99.90
2018-03-21T06:55:39.842Z,99.90
2018-03-21T06:58:06.629Z,99.90
2018-03-21T07:00:32.889Z,99.90
2018-03-21T07:02:59.166Z,99.90
2018-03-21T07:05:26.098Z,99.90
2018-03-21T07:07:52.805Z,99.90
2018-03-21T07:10:21.186Z,99.90
2018-03-21T07:12:49.196Z,99.90
2018-03-21T07:15:29.373Z,99.90
2018-03-21T07:17:55.886Z,99.90
2018-03-21T07:20:22.680Z,99.90
2018-03-21T07:22:48.856Z,99.90
2018-03-21T07:25:15.564Z,99.90
2018-03-21T07:27:41.764Z,99.90
2018-03-21T07:30:07.898Z,99.90
2018-03-21T07:32:34.359Z,99.90
2018-03-21T07:35:00.534Z,99.90
2018-03-21T07:37:26.763Z,99.90
2018-03-21T07:39:54.006Z,99.90
2018-03-21T07:42:21.569Z,99.90
2018-03-21T07:44:48.522Z,99.90
2018-03-21T07:47:15.470Z,99.90
2018-03-21T07:49:43.270Z,99.90
2018-03-21T07:52:10.379Z,99.90
2018-03-21T07:54:36.728Z,99.90
2018-03-21T07:57:03.792Z,99.90
2018-03-21T07:59:31.130Z,99.90
2018-03-21T08:01:58.248Z,99.90
2018-03-21T08:04:24.427Z,99.90
2018-03-21T08:06:51.358Z,99.90
2018-03-21T08:09:17.592Z,99.90
2018-03-21T08:11:44.776Z,99.90
2018-03-21T08:14:11.609Z,99.90
2018-03-21T08:16:38.082Z,99.90
2018-03-21T08:19:04.317Z,99.90
2018-03-21T08:21:30.845Z,99.90
2018-03-21T08:23:57.250Z,99.90
2018-03-21T08:26:23.456Z,99.90
2018-03-21T08:28:49.606Z,99.90
2018-03-21T08:31:17.076Z,99.90
2018-03-21T08:33:43.632Z,99.90
2018-03-21T08:36:10.581Z,99.90
2018-03-21T08:38:37.559Z,99.90
2018-03-21T08:41:04.529Z,99.90
2018-03-21T08:43:30.809Z,99.90
2018-03-21T08:45:57.236Z,99.90
2018-03-21T08:48:24.168Z,99.90
2018-03-21T08:50:50.357Z,99.90
2018-03-21T08:53:16.567Z,99.90
2018-03-21T08:55:42.836Z,99.90
2018-03-21T08:58:08.991Z,99.90
2018-03-21T09:00:35.189Z,99.90
2018-03-21T09:03:01.399Z,99.90
2018-03-21T09:05:29.463Z,99.90
2018-03-21T09:07:55.987Z,99.90
2018-03-21T09:10:22.272Z,99.90
2018-03-21T09:12:49.071Z,99.60
2018-03-21T09:15:15.467Z,99.60
2018-03-21T09:17:41.726Z,99.30
2018-03-21T09:20:07.867Z,99.50
2018-03-21T09:22:34.060Z,99.80
2018-03-21T09:25:00.718Z,99.30
2018-03-21T09:27:26.743Z,99.30
2018-03-21T09:29:52.945Z,99.00
2018-03-21T09:32:19.096Z,98.20
2018-03-21T09:34:46.018Z,96.10
2018-03-21T09:37:12.227Z,96.10
2018-03-21T09:39:38.400Z,95.80
2018-03-21T09:42:04.722Z,95.30
2018-03-21T09:44:30.814Z,95.90
2018-03-21T09:46:57.311Z,96.30
2018-03-21T09:49:24.315Z,94.70
2018-03-21T09:51:50.446Z,94.60
2018-03-21T09:54:16.674Z,94.20
2018-03-21T09:56:43.638Z,93.60
2018-03-21T09:59:09.662Z,92.30
2018-03-21T10:01:36.708Z,91.40
2018-03-21T10:04:02.936Z,90.70
2018-03-21T10:06:30.502Z,90.50
2018-03-21T10:08:56.816Z,89.60
2018-03-21T10:11:24.100Z,89.10
2018-03-21T10:13:50.237Z,88.10
2018-03-21T10:16:16.329Z,89.10
2018-03-21T10:18:45.235Z,82.20
2018-03-21T10:21:11.332Z,82.10
2018-03-21T10:23:38.175Z,85.00
2018-03-21T10:26:04.604Z,84.90
2018-03-21T10:28:30.740Z,87.60
2018-03-21T10:30:57.268Z,84.80
2018-03-21T10:33:24.266Z,85.50
2018-03-21T10:35:50.387Z,84.70
2018-03-21T10:38:17.505Z,85.90
2018-03-21T10:40:43.562Z,85.80
2018-03-21T10:43:10.360Z,78.60
2018-03-21T10:45:37.502Z,78.40
2018-03-21T10:48:03.633Z,82.90
2018-03-21T10:50:30.678Z,80.50
2018-03-21T10:52:56.832Z,80.90
2018-03-21T10:55:22.891Z,71.80
2018-03-21T10:57:49.637Z,72.40
2018-03-21T11:00:15.729Z,56.90
2018-03-21T11:02:48.783Z,56.10
2018-03-21T11:05:15.660Z,61.50
2018-03-21T11:07:41.912Z,61.40
2018-03-21T11:10:08.971Z,60.90
2018-03-21T11:12:35.051Z,60.80
2018-03-21T11:15:01.837Z,61.50
2018-03-21T11:17:29.953Z,64.30
2018-03-21T11:19:56.027Z,67.30
2018-03-21T11:22:22.100Z,68.80
2018-03-21T11:24:48.127Z,68.00
2018-03-21T11:27:15.117Z,70.60
2018-03-21T11:29:41.979Z,65.90
2018-03-21T11:32:08.126Z,65.80
2018-03-21T11:34:34.779Z,65.20
2018-03-21T11:37:00.857Z,64.20
2018-03-21T11:39:26.924Z,59.60
2018-03-21T11:41:53.031Z,60.40
2018-03-21T11:44:19.870Z,64.50
2018-03-21T11:46:46.730Z,65.80
2018-03-21T11:49:13.028Z,65.70
2018-03-21T11:51:39.249Z,63.40
2018-03-21T11:54:05.394Z,63.00
2018-03-21T11:56:31.545Z,61.80
2018-03-21T11:58:59.591Z,62.00
2018-03-21T12:01:26.167Z,58.80
2018-03-21T12:03:52.312Z,58.30
2018-03-21T12:06:18.438Z,56.90
2018-03-21T12:08:46.297Z,55.10
2018-03-21T12:11:12.536Z,55.00
2018-03-21T12:13:38.837Z,56.90
2018-03-21T12:16:05.495Z,57.20
2018-03-21T12:18:31.718Z,55.50
2018-03-21T12:20:57.794Z,53.80
2018-03-21T12:23:24.251Z,53.30
2018-03-21T12:25:51.139Z,53.10
2018-03-21T12:28:17.534Z,50.50
2018-03-21T12:30:43.753Z,52.60
2018-03-21T12:33:10.070Z,52.00
2018-03-21T12:35:36.236Z,49.30
2018-03-21T12:38:02.716Z,50.60
2018-03-21T12:40:28.883Z,51.90
2018-03-21T12:42:55.427Z,54.50
2018-03-21T12:45:22.257Z,53.70
2018-03-21T12:47:48.499Z,53.40
2018-03-21T12:50:14.636Z,51.40
2018-03-21T12:52:41.450Z,49.90
2018-03-21T12:55:07.683Z,49.40
2018-03-21T12:57:33.779Z,48.90
2018-03-21T13:00:00.256Z,47.30
2018-03-21T13:02:26.353Z,47.20
2018-03-21T13:04:52.499Z,45.80
2018-03-21T13:07:18.510Z,44.20
2018-03-21T13:09:44.611Z,44.20
2018-03-21T13:12:11.491Z,41.90
2018-03-21T13:14:38.020Z,41.90
2018-03-21T13:17:04.925Z,41.40
2018-03-21T13:19:32.481Z,42.10
2018-03-21T13:21:58.751Z,41.80
2018-03-21T13:24:25.675Z,39.00
2018-03-21T13:26:53.718Z,38.90
2018-03-21T13:29:19.913Z,39.60
2018-03-21T13:31:46.103Z,41.00
2018-03-21T13:34:12.841Z,42.80
2018-03-21T13:36:39.240Z,42.80
2018-03-21T13:39:06.441Z,43.20
2018-03-21T13:41:32.704Z,43.20
2018-03-21T13:43:59.155Z,42.90
2018-03-21T13:46:25.465Z,40.60
2018-03-21T13:48:51.783Z,41.60
2018-03-21T13:51:18.038Z,43.60
2018-03-21T13:53:45.010Z,44.20
2018-03-21T13:56:11.436Z,44.10
2018-03-21T13:58:37.987Z,42.80
2018-03-21T14:01:05.710Z,40.50
2018-03-21T14:03:32.263Z,40.50
2018-03-21T14:05:59.519Z,41.70
2018-03-21T14:08:26.035Z,41.70
2018-03-21T14:10:52.320Z,40.00
2018-03-21T14:13:18.478Z,39.90
2018-03-21T14:15:45.150Z,39.20
2018-03-21T14:18:11.798Z,38.10
2018-03-21T14:20:38.528Z,37.30
2018-03-21T14:23:04.809Z,35.40
2018-03-21T14:25:31.836Z,38.20
2018-03-21T14:27:58.097Z,39.00
2018-03-21T14:30:25.280Z,39.50
2018-03-21T14:32:52.155Z,39.70
2018-03-21T14:35:19.435Z,39.20
2018-03-21T14:37:45.961Z,37.30
2018-03-21T14:40:12.163Z,39.50
2018-03-21T14:42:39.661Z,38.30
2018-03-21T14:45:05.841Z,37.80
2018-03-21T14:47:32.827Z,38.60
2018-03-21T14:49:58.965Z,38.50
2018-03-21T14:52:25.002Z,38.70
2018-03-21T14:54:51.527Z,39.10
2018-03-21T14:57:19.208Z,38.10
2018-03-21T14:59:45.416Z,38.00
2018-03-21T15:02:11.747Z,37.50
2018-03-21T15:04:39.042Z,36.80
2018-03-21T15:07:05.212Z,36.70
2018-03-21T15:09:31.391Z,36.90
2018-03-21T15:11:58.070Z,37.70
2018-03-21T15:14:24.575Z,36.90
2018-03-21T15:16:50.942Z,37.00
2018-03-21T15:19:17.528Z,37.60
2018-03-21T15:21:43.718Z,37.20
2018-03-21T15:24:10.105Z,37.50
2018-03-21T15:26:36.773Z,37.60
2018-03-21T15:29:02.893Z,37.50
2018-03-21T15:31:29.203Z,37.50
2018-03-21T15:33:55.529Z,37.00
2018-03-21T15:36:22.598Z,37.00
2018-03-21T15:38:49.844Z,36.60
2018-03-21T15:41:18.155Z,37.40
2018-03-21T15:43:44.453Z,37.30
2018-03-21T15:46:10.606Z,36.60
2018-03-21T15:48:37.461Z,36.70
2018-03-21T15:51:04.502Z,36.50
2018-03-21T15:53:31.112Z,36.40
2018-03-21T15:55:57.463Z,37.80
2018-03-21T15:58:23.682Z,36.60
2018-03-21T16:00:51.032Z,37.90
2018-03-21T16:03:17.236Z,37.90
2018-03-21T16:05:43.484Z,37.20
2018-03-21T16:08:09.720Z,37.10
2018-03-21T16:10:35.828Z,36.70
2018-03-21T16:13:02.039Z,37.50
2018-03-21T16:15:28.316Z,38.00
2018-03-21T16:17:54.500Z,37.90
2018-03-21T16:20:20.574Z,38.00
2018-03-21T16:22:47.378Z,37.90
2018-03-21T16:25:14.196Z,37.90
2018-03-21T16:27:40.593Z,38.10
2018-03-21T16:30:07.094Z,37.90
2018-03-21T16:32:34.012Z,38.30
2018-03-21T16:35:00.581Z,38.10
2018-03-21T16:37:28.333Z,38.50
2018-03-21T16:39:54.459Z,38.70
2018-03-21T16:42:20.684Z,39.00
2018-03-21T16:44:46.758Z,39.30
2018-03-21T16:47:12.966Z,42.00
2018-03-21T16:49:39.575Z,41.60
2018-03-21T16:52:06.810Z,40.80
2018-03-21T16:54:33.965Z,41.10
2018-03-21T16:57:01.111Z,40.80
2018-03-21T16:59:27.289Z,40.80
2018-03-21T17:01:53.466Z,41.10
2018-03-21T17:04:19.613Z,40.40
2018-03-21T17:06:46.863Z,38.20
2018-03-21T17:09:13.999Z,37.60
2018-03-21T17:11:41.167Z,37.60
2018-03-21T17:14:07.482Z,37.30
2018-03-21T17:16:34.004Z,37.90
2018-03-21T17:19:00.582Z,39.00
2018-03-21T17:21:29.889Z,39.30
2018-03-21T17:23:56.893Z,38.90
2018-03-21T17:26:23.183Z,38.90
2018-03-21T17:28:49.730Z,40.30
2018-03-21T17:31:15.988Z,41.10
2018-03-21T17:33:43.618Z,41.50
2018-03-21T17:36:10.627Z,42.60
2018-03-21T17:38:36.774Z,43.50
2018-03-21T17:41:04.431Z,43.90
2018-03-21T17:43:30.653Z,44.00
2018-03-21T17:45:57.834Z,44.40
2018-03-21T17:48:24.035Z,44.50
2018-03-21T17:50:50.445Z,44.90
2018-03-21T17:53:18.242Z,46.00
2018-03-21T17:55:45.979Z,46.00
2018-03-21T17:58:13.042Z,47.30
2018-03-21T18:00:39.482Z,47.20
2018-03-21T18:03:05.585Z,47.90
2018-03-21T18:05:32.759Z,48.20
2018-03-21T18:08:00.642Z,49.60
2018-03-21T18:10:27.406Z,49.50
2018-03-21T18:12:53.667Z,49.70
2018-03-21T18:15:20.811Z,49.50
2018-03-21T18:17:47.905Z,49.70
2018-03-21T18:20:14.357Z,50.40
2018-03-21T18:22:40.785Z,51.10
2018-03-21T18:25:08.374Z,51.00
2018-03-21T18:27:35.272Z,54.80
2018-03-21T18:30:01.476Z,54.80
2018-03-21T18:32:28.023Z,55.20
2018-03-21T18:34:57.211Z,56.10
2018-03-21T18:37:23.370Z,56.40
2018-03-21T18:39:49.608Z,56.90
2018-03-21T18:42:15.716Z,57.10
2018-03-21T18:44:41.939Z,57.40
2018-03-21T18:47:11.264Z,58.30
2018-03-21T18:49:37.798Z,58.80
2018-03-21T18:52:04.012Z,60.90
2018-03-21T18:54:31.272Z,65.10
2018-03-21T18:56:59.895Z,64.70
2018-03-21T18:59:28.217Z,64.60
2018-03-21T19:01:54.314Z,64.30
2018-03-21T19:04:20.608Z,64.40
2018-03-21T19:06:46.769Z,66.60
2018-03-21T19:09:12.959Z,68.20
2018-03-21T19:11:39.840Z,71.20
2018-03-21T19:14:06.042Z,71.00
2018-03-21T19:16:33.313Z,76.40
2018-03-21T19:18:59.568Z,76.20
2018-03-21T19:21:27.152Z,74.00
2018-03-21T19:23:54.481Z,71.80
2018-03-21T19:26:22.587Z,71.70
2018-03-21T19:28:48.651Z,73.10
2018-03-21T19:31:14.829Z,73.90
2018-03-21T19:33:40.955Z,72.90
2018-03-21T19:36:07.066Z,72.20
2018-03-21T19:38:34.311Z,70.50
2018-03-21T19:41:00.445Z,70.40
2018-03-21T19:43:27.355Z,63.20
2018-03-21T19:46:00.496Z,63.30
2018-03-21T19:48:26.921Z,58.80
2018-03-21T19:50:53.574Z,59.40
2018-03-21T19:53:21.693Z,58.00
2018-03-21T19:55:47.775Z,58.00
2018-03-21T19:58:14.042Z,57.50
2018-03-21T20:00:41.120Z,57.20
2018-03-21T20:03:07.552Z,56.00
2018-03-21T20:05:34.358Z,54.80
2018-03-21T20:08:00.430Z,54.90
2018-03-21T20:10:26.589Z,55.40
2018-03-21T20:12:54.516Z,55.10
2018-03-21T20:15:21.186Z,55.60
2018-03-21T20:17:48.594Z,56.50
2018-03-21T20:20:14.796Z,58.50
2018-03-21T20:22:41.207Z,68.90
2018-03-21T20:25:08.076Z,76.70
2018-03-21T20:27:34.203Z,82.40
2018-03-21T20:30:00.407Z,85.20
2018-03-21T20:32:26.609Z,85.70
2018-03-21T20:34:52.726Z,86.40
2018-03-21T20:37:19.607Z,88.80
2018-03-21T20:39:46.755Z,89.60
2018-03-21T20:42:13.588Z,89.00
2018-03-21T20:44:40.258Z,88.90
2018-03-21T20:47:06.471Z,89.10
2018-03-21T20:49:32.588Z,89.80
2018-03-21T20:51:58.738Z,90.30
2018-03-21T20:54:25.904Z,90.40
2018-03-21T20:56:52.884Z,90.40
2018-03-21T20:59:19.317Z,90.60
2018-03-21T21:01:45.541Z,90.90
2018-03-21T21:04:12.294Z,91.50
2018-03-21T21:06:38.852Z,92.20
2018-03-21T21:09:06.057Z,92.40
2018-03-21T21:11:32.906Z,93.20
2018-03-21T21:13:59.483Z,93.20
2018-03-21T21:16:25.582Z,93.80
2018-03-21T21:18:52.267Z,94.70
2018-03-21T21:21:18.337Z,95.40
2018-03-21T21:23:44.559Z,95.90
2018-03-21T21:26:10.768Z,96.20
2018-03-21T21:28:37.803Z,96.40
2018-03-21T21:31:04.100Z,96.60
2018-03-21T21:33:32.145Z,96.90
2018-03-21T21:35:58.351Z,96.90
2018-03-21T21:38:24.661Z,96.90
2018-03-21T21:40:51.589Z,97.10
2018-03-21T21:43:17.814Z,97.00
2018-03-21T21:45:43.963Z,97.20
2018-03-21T21:48:10.948Z,97.80
2018-03-21T21:50:37.124Z,97.80
2018-03-21T21:53:03.348Z,97.70
2018-03-21T21:55:29.483Z,98.00
2018-03-21T21:57:55.730Z,98.20
2018-03-21T22:00:21.978Z,98.00
2018-03-21T22:02:49.346Z,98.50
2018-03-21T22:05:16.651Z,98.30
2018-03-21T22:07:42.858Z,98.30
2018-03-21T22:10:10.086Z,98.10
2018-03-21T22:12:36.197Z,98.00
2018-03-21T22:15:02.316Z,98.30
2018-03-21T22:17:28.465Z,98.30
2018-03-21T22:19:55.000Z,98.60
2018-03-21T22:22:21.625Z,99.00
2018-03-21T22:24:48.664Z,99.30
2018-03-21T22:27:14.778Z,99.20
2018-03-21T22:29:40.990Z,98.60
2018-03-21T22:32:08.256Z,98.20
2018-03-21T22:34:35.095Z,98.30
2018-03-21T22:37:01.319Z,98.30
2018-03-21T22:39:29.691Z,98.20
2018-03-21T22:41:55.940Z,98.20
2018-03-21T22:44:22.823Z,98.50
2018-03-21T22:46:48.903Z,98.50
2018-03-21T22:49:15.076Z,98.90
2018-03-21T22:51:41.298Z,98.90
2018-03-21T22:54:08.801Z,98.90
2018-03-21T22:56:34.894Z,98.90
2018-03-21T22:59:03.975Z,99.30
2018-03-21T23:01:30.063Z,99.40
2018-03-21T23:03:56.142Z,99.70
2018-03-21T23:06:22.232Z,99.90
2018-03-21T23:08:48.252Z,99.90
2018-03-21T23:11:14.303Z,99.90
2018-03-21T23:13:41.260Z,99.90
2018-03-21T23:16:07.425Z,99.90
2018-03-21T23:18:34.235Z,99.90
2018-03-21T23:21:01.041Z,99.90
2018-03-21T23:23:27.902Z,99.90
2018-03-21T23:25:53.974Z,99.90
2018-03-21T23:28:20.070Z,99.90
2018-03-21T23:30:46.166Z,99.90
2018-03-21T23:33:12.232Z,99.90
2018-03-21T23:35:38.376Z,99.90
2018-03-21T23:38:05.213Z,99.90
2018-03-21T23:40:31.391Z,99.90
2018-03-21T23:42:58.725Z,99.90
2018-03-21T23:45:24.793Z,99.90
2018-03-21T23:47:50.950Z,99.90
2018-03-21T23:50:17.052Z,99.90
2018-03-21T23:52:44.234Z,99.90
2018-03-21T23:55:10.261Z,99.90
2018-03-21T23:57:36.374Z,99.90
